createdAt,value
2023-03-29T00:07:36.587Z,83.5
2023-03-29T00:12:36.695Z,84.1
2023-03-29T00:17:36.657Z,84.1
2023-03-29T00:42:36.593Z,82.9
2023-03-29T00:47:36.612Z,82.9
2023-03-29T00:52:36.619Z,82.6
2023-03-29T01:02:36.715Z,82.4
2023-03-29T01:07:36.609Z,82.0
2023-03-29T01:12:36.626Z,82.3
2023-03-29T01:17:36.676Z,82.4
2023-03-29T01:22:36.620Z,82.1
2023-03-29T01:32:36.662Z,82.9
2023-03-29T01:37:36.662Z,82.9
2023-03-29T01:47:36.642Z,82.2
2023-03-29T01:52:36.603Z,81.7
2023-03-29T01:57:36.651Z,81.8
2023-03-29T02:17:36.660Z,81.1
2023-03-29T02:37:36.650Z,81.5
2023-03-29T02:47:36.674Z,81.7
2023-03-29T02:52:36.646Z,83.3
2023-03-29T02:57:36.644Z,86.7
2023-03-29T03:12:36.657Z,94.7
2023-03-29T03:27:36.683Z,100.0
2023-03-29T03:42:36.632Z,100.0
2023-03-29T03:47:36.684Z,100.0
2023-03-29T03:57:36.637Z,99.7
2023-03-29T04:02:36.788Z,99.6
2023-03-29T04:07:36.854Z,99.2
2023-03-29T04:12:36.856Z,99.6
2023-03-29T04:47:36.744Z,97.9
2023-03-29T04:57:36.693Z,95.6
2023-03-29T05:07:36.684Z,94.1
2023-03-29T05:12:36.710Z,94.5
2023-03-29T05:22:36.678Z,93.8
2023-03-29T05:42:36.666Z,92.5
2023-03-29T05:47:36.690Z,92.3
2023-03-29T05:52:36.702Z,91.8
2023-03-29T05:57:36.699Z,90.7
2023-03-29T06:07:36.693Z,89.7
2023-03-29T06:12:36.699Z,89.8
2023-03-29T06:22:36.691Z,89.3
2023-03-29T06:27:36.688Z,88.3
2023-03-29T06:32:36.730Z,87.3
2023-03-29T06:37:36.719Z,86.6
2023-03-29T06:42:36.713Z,85.5
2023-03-29T06:47:36.746Z,84.4
2023-03-29T06:57:36.702Z,84.8
2023-03-29T07:02:36.953Z,87.4
2023-03-29T07:07:36.800Z,87.2
2023-03-29T07:12:36.704Z,86.5
2023-03-29T07:17:36.735Z,85.8
2023-03-29T07:22:36.694Z,86.8
2023-03-29T07:27:36.697Z,86.8
2023-03-29T07:32:36.767Z,85.6
2023-03-29T07:37:36.689Z,84.0
2023-03-29T07:52:36.701Z,81.5
2023-03-29T07:57:36.737Z,80.6
2023-03-29T08:02:36.742Z,78.9
2023-03-29T08:07:36.718Z,77.9
2023-03-29T08:12:36.735Z,78.0
2023-03-29T08:17:36.767Z,79.1
2023-03-29T08:22:36.720Z,78.7
2023-03-29T08:27:36.714Z,77.2
2023-03-29T08:32:36.788Z,76.2
2023-03-29T08:37:36.758Z,75.5
2023-03-29T08:42:36.822Z,74.9
2023-03-29T08:47:36.775Z,75.2
2023-03-29T08:52:36.734Z,73.9
2023-03-29T09:02:36.810Z,72.2
2023-03-29T09:07:36.717Z,70.8
2023-03-29T09:12:37.899Z,69.7
2023-03-29T09:17:36.779Z,71.3
2023-03-29T09:22:36.721Z,71.7
2023-03-29T09:27:36.749Z,69.6
2023-03-29T09:32:36.771Z,72.4
2023-03-29T09:37:36.748Z,73.2
2023-03-29T09:42:36.744Z,72.7
2023-03-29T09:47:36.827Z,72.5
2023-03-29T09:52:36.754Z,72.2
2023-03-29T09:57:38.154Z,70.6
2023-03-29T10:02:36.818Z,70.6
2023-03-29T10:07:36.746Z,67.1
2023-03-29T10:12:36.766Z,69.2
2023-03-29T10:17:36.784Z,70.1
2023-03-29T10:22:36.741Z,71.2
2023-03-29T10:27:36.749Z,71.8
2023-03-29T10:32:36.824Z,71.3
2023-03-29T10:37:36.776Z,69.2
2023-03-29T10:42:36.776Z,70.6
2023-03-29T10:47:38.097Z,71.7
2023-03-29T10:52:36.756Z,71.7
2023-03-29T10:57:36.962Z,73.4
2023-03-29T11:02:36.884Z,75.6
2023-03-29T11:07:36.783Z,76.4
2023-03-29T11:12:36.775Z,78.8
2023-03-29T11:17:36.829Z,80.5
2023-03-29T11:22:36.766Z,76.4
2023-03-29T11:27:36.776Z,76.0
2023-03-29T11:32:36.818Z,74.8
2023-03-29T11:37:36.807Z,69.7
2023-03-29T11:42:36.788Z,69.5
2023-03-29T11:47:36.828Z,72.5
2023-03-29T11:52:36.768Z,73.0
2023-03-29T11:57:36.801Z,68.4
2023-03-29T12:02:36.870Z,72.3
2023-03-29T12:07:36.789Z,73.8
2023-03-29T12:12:36.786Z,76.2
2023-03-29T12:17:36.845Z,75.2
2023-03-29T12:22:36.786Z,75.0
2023-03-29T12:27:36.787Z,75.4
2023-03-29T12:32:36.849Z,75.2
2023-03-29T12:37:36.799Z,75.0
2023-03-29T12:42:36.813Z,73.2
2023-03-29T12:47:36.799Z,73.9
2023-03-29T12:52:36.820Z,73.3
2023-03-29T12:57:36.814Z,75.6
2023-03-29T13:02:37.093Z,79.9
2023-03-29T13:07:36.802Z,80.4
2023-03-29T13:12:36.809Z,79.4
2023-03-29T13:17:36.822Z,78.6
2023-03-29T13:22:36.822Z,78.5
2023-03-29T13:27:36.806Z,78.5
2023-03-29T13:32:36.851Z,76.4
2023-03-29T13:42:36.848Z,74.9
2023-03-29T13:47:36.919Z,71.3
2023-03-29T13:52:36.808Z,65.4
2023-03-29T13:57:36.815Z,66.7
2023-03-29T14:02:37.025Z,66.7
2023-03-29T14:07:36.833Z,67.2
2023-03-29T14:12:38.297Z,61.8
2023-03-29T14:17:36.940Z,63.4
2023-03-29T14:22:36.849Z,68.5
2023-03-29T14:27:37.875Z,70.7
2023-03-29T14:32:36.846Z,70.7
2023-03-29T14:37:36.834Z,71.6
2023-03-29T14:42:36.895Z,70.3
2023-03-29T14:47:37.019Z,70.6
2023-03-29T14:52:36.845Z,70.2
2023-03-29T14:57:36.904Z,69.2
2023-03-29T15:02:36.961Z,67.4
2023-03-29T15:07:36.892Z,66.3
2023-03-29T15:12:36.849Z,66.4
2023-03-29T15:17:50.329Z,65.9
2023-03-29T15:22:36.850Z,64.1
2023-03-29T15:27:36.875Z,64.4
2023-03-29T15:32:36.919Z,65.1
2023-03-29T15:42:36.847Z,64.3
2023-03-29T15:47:36.897Z,63.4
2023-03-29T15:52:36.876Z,62.4
2023-03-29T15:57:36.938Z,64.0
2023-03-29T16:02:36.982Z,65.6
2023-03-29T16:07:36.873Z,66.6
2023-03-29T16:12:36.858Z,67.6
2023-03-29T16:27:36.870Z,68.4
2023-03-29T16:32:36.922Z,68.0
2023-03-29T16:37:36.889Z,68.7
2023-03-29T16:47:36.921Z,70.2
2023-03-29T16:57:36.862Z,71.8
2023-03-29T17:07:36.894Z,73.0
2023-03-29T17:12:36.880Z,74.2
2023-03-29T17:17:36.910Z,77.2
2023-03-29T17:22:36.892Z,78.6
2023-03-29T17:32:36.962Z,83.1
2023-03-29T17:42:36.923Z,82.8
2023-03-29T17:47:36.923Z,82.8
2023-03-29T18:02:37.029Z,82.9
2023-03-29T18:12:36.908Z,84.5
2023-03-29T18:27:36.912Z,84.9
2023-03-29T18:32:36.988Z,85.2
2023-03-29T18:47:36.933Z,86.0
2023-03-29T18:52:36.926Z,86.4
2023-03-29T19:02:37.009Z,87.7
2023-03-29T19:07:36.972Z,88.7
2023-03-29T19:12:36.942Z,90.2
2023-03-29T19:17:36.949Z,91.2
2023-03-29T19:22:36.940Z,93.0
2023-03-29T19:27:36.928Z,92.9
2023-03-29T19:47:36.975Z,93.3
2023-03-29T19:52:36.946Z,96.0
2023-03-29T19:57:36.932Z,96.8
2023-03-29T20:02:36.968Z,96.3
2023-03-29T20:12:36.939Z,96.2
2023-03-29T20:17:36.952Z,96.9
2023-03-29T20:22:36.967Z,96.3
2023-03-29T20:27:36.943Z,97.5
2023-03-29T20:42:36.939Z,96.6
2023-03-29T20:47:36.991Z,96.9
2023-03-29T20:52:36.961Z,95.4
2023-03-29T20:57:37.105Z,96.7
2023-03-29T21:07:36.962Z,96.0
2023-03-29T21:12:36.954Z,96.4
2023-03-29T21:22:36.976Z,95.3
2023-03-29T21:27:36.983Z,95.5
2023-03-29T21:37:36.989Z,97.0
2023-03-29T21:42:36.972Z,99.1
2023-03-29T21:57:36.964Z,96.3
2023-03-29T22:22:36.995Z,94.4
2023-03-29T22:32:37.039Z,91.6
2023-03-29T22:37:37.001Z,89.7
2023-03-29T22:42:36.988Z,88.5
2023-03-29T22:47:37.046Z,87.2
2023-03-29T22:52:36.995Z,85.0
2023-03-29T22:57:36.980Z,84.1
2023-03-29T23:02:37.011Z,82.5
2023-03-29T23:07:37.007Z,80.8
2023-03-29T23:37:37.010Z,76.9
2023-03-29T23:47:37.063Z,77.6
2023-03-29T23:57:37.021Z,77.9
